createdAt,value
2018-12-26T00:02:27.327Z,7.77
2018-12-26T00:04:58.160Z,7.43
2018-12-26T00:07:28.825Z,6.63
2018-12-26T00:10:01.740Z,12.53
2018-12-26T00:12:35.169Z,7.83
2018-12-26T00:15:05.921Z,9.33
2018-12-26T00:17:36.664Z,4.93
2018-12-26T00:20:07.548Z,7.30
2018-12-26T00:22:38.628Z,3.27
2018-12-26T00:25:09.889Z,8.27
2018-12-26T00:27:42.785Z,6.07
2018-12-26T00:30:13.693Z,7.97
2018-12-26T00:32:44.738Z,6.17
2018-12-26T00:35:15.999Z,10.20
2018-12-26T00:37:46.879Z,7.87
2018-12-26T00:40:19.788Z,11.03
2018-12-26T00:42:50.612Z,7.93
2018-12-26T00:45:21.436Z,4.20
2018-12-26T00:47:52.339Z,6.30
2018-12-26T00:50:23.059Z,6.60
2018-12-26T00:52:54.341Z,8.03
2018-12-26T00:55:26.115Z,9.47
2018-12-26T00:57:58.566Z,6.57
2018-12-26T01:00:29.424Z,5.27
2018-12-26T01:03:00.719Z,6.90
2018-12-26T01:05:31.547Z,7.10
2018-12-26T01:08:02.409Z,8.77
2018-12-26T01:10:33.269Z,7.87
2018-12-26T01:13:04.443Z,7.43
2018-12-26T01:15:35.278Z,3.50
2018-12-26T01:18:06.861Z,8.77
2018-12-26T01:20:37.585Z,7.57
2018-12-26T01:23:08.296Z,8.23
2018-12-26T01:25:39.113Z,7.30
2018-12-26T01:28:10.212Z,7.43
2018-12-26T01:30:42.018Z,7.70
2018-12-26T01:33:12.841Z,4.80
2018-12-26T01:35:43.883Z,4.40
2018-12-26T01:38:14.688Z,9.37
2018-12-26T01:40:45.594Z,13.07
2018-12-26T01:43:16.656Z,8.83
2018-12-26T01:45:47.718Z,4.50
2018-12-26T01:48:18.566Z,7.07
2018-12-26T01:50:49.391Z,7.43
2018-12-26T01:53:20.162Z,8.73
2018-12-26T01:55:50.939Z,10.47
2018-12-26T01:58:21.759Z,11.23
2018-12-26T02:00:52.610Z,11.10
2018-12-26T02:03:23.417Z,9.07
2018-12-26T02:05:54.284Z,9.73
2018-12-26T02:08:25.302Z,5.57
2018-12-26T02:10:56.194Z,10.93
2018-12-26T02:13:27.070Z,10.13
2018-12-26T02:15:57.984Z,8.20
2018-12-26T02:18:28.811Z,8.30
2018-12-26T02:21:00.301Z,8.50
2018-12-26T02:23:30.965Z,9.57
2018-12-26T02:26:02.124Z,7.90
2018-12-26T02:28:32.777Z,9.13
2018-12-26T02:31:05.023Z,6.03
2018-12-26T02:33:35.651Z,6.17
2018-12-26T02:36:06.451Z,8.20
2018-12-26T02:38:37.202Z,9.80
2018-12-26T02:41:08.224Z,7.47
2018-12-26T02:43:39.147Z,5.33
2018-12-26T02:46:10.274Z,6.97
2018-12-26T02:48:42.126Z,10.07
2018-12-26T02:51:12.850Z,11.30
2018-12-26T02:53:43.780Z,7.07
2018-12-26T02:56:14.454Z,6.30
2018-12-26T02:58:45.139Z,11.63
2018-12-26T03:01:16.332Z,8.33
2018-12-26T03:03:47.001Z,6.70
2018-12-26T03:06:17.729Z,10.03
2018-12-26T03:08:48.421Z,9.57
2018-12-26T03:11:19.137Z,4.73
2018-12-26T03:13:49.886Z,8.80
2018-12-26T03:16:20.529Z,6.83
2018-12-26T03:18:51.182Z,8.90
2018-12-26T03:21:21.804Z,12.87
2018-12-26T03:23:52.500Z,15.00
2018-12-26T03:26:24.246Z,11.47
2018-12-26T03:28:54.916Z,11.53
2018-12-26T03:31:25.563Z,7.40
2018-12-26T03:33:56.270Z,7.70
2018-12-26T03:36:27.185Z,3.33
2018-12-26T03:38:57.884Z,8.97
2018-12-26T03:41:29.372Z,9.97
2018-12-26T03:44:00.017Z,12.37
2018-12-26T03:46:30.978Z,12.30
2018-12-26T03:49:01.855Z,5.33
2018-12-26T03:51:32.511Z,4.33
2018-12-26T03:54:03.214Z,10.87
2018-12-26T03:56:33.910Z,8.33
2018-12-26T03:59:04.771Z,8.83
2018-12-26T04:01:36.389Z,10.57
2018-12-26T04:04:08.706Z,10.27
2018-12-26T04:06:40.062Z,9.57
2018-12-26T04:09:11.058Z,7.80
2018-12-26T04:11:41.852Z,4.57
2018-12-26T04:14:12.564Z,11.23
2018-12-26T04:16:43.334Z,6.20
2018-12-26T04:19:14.314Z,6.13
2018-12-26T04:21:45.761Z,8.57
2018-12-26T04:24:16.781Z,7.00
2018-12-26T04:26:47.462Z,7.20
2018-12-26T04:29:18.175Z,11.67
2018-12-26T04:31:48.837Z,12.00
2018-12-26T04:34:19.548Z,5.60
2018-12-26T04:36:50.241Z,6.40
2018-12-26T04:39:21.030Z,5.73
2018-12-26T04:41:51.719Z,12.67
2018-12-26T04:44:22.430Z,12.63
2018-12-26T04:46:53.041Z,9.60
2018-12-26T04:49:23.913Z,9.47
2018-12-26T04:51:54.766Z,12.80
2018-12-26T04:54:25.425Z,8.90
2018-12-26T04:56:56.069Z,8.10
2018-12-26T04:59:26.755Z,5.43
2018-12-26T05:01:57.472Z,11.40
2018-12-26T05:04:28.101Z,6.20
2018-12-26T05:06:58.767Z,8.03
2018-12-26T05:09:29.484Z,10.20
2018-12-26T05:12:00.197Z,7.50
2018-12-26T05:14:30.949Z,8.93
2018-12-26T05:17:01.634Z,10.50
2018-12-26T05:19:32.255Z,13.70
2018-12-26T05:22:03.078Z,8.47
2018-12-26T05:24:33.848Z,26.10
2018-12-26T05:27:04.520Z,10.07
2018-12-26T05:29:35.193Z,10.10
2018-12-26T05:32:05.861Z,14.40
2018-12-26T05:34:39.196Z,8.97
2018-12-26T05:37:14.485Z,15.40
2018-12-26T05:39:49.559Z,14.77
2018-12-26T05:42:20.303Z,14.43
2018-12-26T05:44:50.992Z,11.70
2018-12-26T05:47:21.659Z,13.00
2018-12-26T05:49:52.366Z,10.90
2018-12-26T05:52:23.086Z,17.87
2018-12-26T05:54:53.782Z,14.67
2018-12-26T05:57:24.479Z,10.20
2018-12-26T05:59:55.150Z,13.23
2018-12-26T06:02:25.822Z,14.13
2018-12-26T06:04:56.480Z,16.80
2018-12-26T06:07:27.106Z,16.87
2018-12-26T06:09:57.801Z,16.53
2018-12-26T06:12:28.446Z,13.27
2018-12-26T06:14:59.158Z,14.67
2018-12-26T06:17:29.884Z,14.43
2018-12-26T06:20:00.619Z,14.20
2018-12-26T06:22:31.313Z,16.37
2018-12-26T06:25:02.025Z,12.07
2018-12-26T06:27:32.715Z,16.27
2018-12-26T06:30:06.070Z,12.33
2018-12-26T06:32:36.802Z,16.77
2018-12-26T06:35:07.443Z,15.30
2018-12-26T06:37:38.282Z,12.43
2018-12-26T06:40:09.897Z,12.63
2018-12-26T06:42:42.368Z,14.37
2018-12-26T06:45:13.649Z,13.50
2018-12-26T06:47:44.336Z,12.17
2018-12-26T06:50:15.900Z,14.87
2018-12-26T06:52:46.565Z,14.00
2018-12-26T06:55:17.242Z,14.57
2018-12-26T06:57:47.895Z,15.03
2018-12-26T07:00:18.536Z,17.30
2018-12-26T07:02:49.293Z,17.00
2018-12-26T07:05:19.965Z,16.27
2018-12-26T07:07:50.624Z,13.77
2018-12-26T07:10:21.384Z,19.03
2018-12-26T07:12:52.058Z,18.30
2018-12-26T07:15:22.897Z,17.63
2018-12-26T07:17:53.828Z,20.67
2018-12-26T07:20:24.622Z,15.03
2018-12-26T07:22:55.464Z,17.53
2018-12-26T07:25:26.236Z,20.40
2018-12-26T07:27:56.992Z,19.07
2018-12-26T07:30:27.711Z,19.93
2018-12-26T07:32:58.329Z,22.67
2018-12-26T07:35:29.336Z,17.17
2018-12-26T07:38:00.120Z,21.13
2018-12-26T07:40:30.811Z,18.77
2018-12-26T07:43:01.599Z,17.70
2018-12-26T07:45:32.383Z,17.30
2018-12-26T07:48:03.109Z,24.17
2018-12-26T07:50:36.748Z,18.97
2018-12-26T07:53:07.397Z,18.60
2018-12-26T07:55:40.873Z,18.77
2018-12-26T07:58:17.552Z,24.00
2018-12-26T08:00:44.675Z,18.37
2018-12-26T08:03:15.959Z,20.10
2018-12-26T08:05:50.859Z,20.57
2018-12-26T08:08:22.225Z,21.27
2018-12-26T08:10:52.993Z,19.07
2018-12-26T08:13:23.777Z,21.07
2018-12-26T08:15:54.475Z,17.83
2018-12-26T08:18:25.216Z,20.53
2018-12-26T08:20:55.998Z,18.30
2018-12-26T08:23:26.680Z,17.10
2018-12-26T08:25:57.389Z,20.20
2018-12-26T08:28:28.122Z,20.33
2018-12-26T08:30:58.796Z,20.83
2018-12-26T08:33:29.454Z,17.50
2018-12-26T08:36:00.144Z,18.37
2018-12-26T08:38:30.835Z,20.03
2018-12-26T08:41:01.888Z,17.60
2018-12-26T08:43:32.494Z,18.93
2018-12-26T08:46:03.214Z,17.40
2018-12-26T08:48:33.943Z,17.40
2018-12-26T08:51:05.752Z,24.63
2018-12-26T08:53:36.504Z,16.60
2018-12-26T08:56:07.241Z,19.50
2018-12-26T08:58:38.195Z,16.47
2018-12-26T09:01:11.402Z,17.93
2018-12-26T09:03:43.955Z,20.87
2018-12-26T09:06:15.667Z,17.97
2018-12-26T09:08:49.251Z,22.10
2018-12-26T09:11:20.171Z,17.77
2018-12-26T09:13:54.414Z,15.27
2018-12-26T09:16:25.112Z,21.07
2018-12-26T09:18:55.991Z,17.33
2018-12-26T09:21:26.765Z,15.20
2018-12-26T09:23:57.430Z,16.13
2018-12-26T09:26:33.462Z,15.83
2018-12-26T09:29:04.114Z,13.70
2018-12-26T09:31:34.874Z,16.10
2018-12-26T09:34:05.841Z,15.67
2018-12-26T09:36:36.589Z,16.80
2018-12-26T09:39:10.536Z,15.57
2018-12-26T09:41:41.239Z,15.87
2018-12-26T09:44:11.969Z,18.13
2018-12-26T09:46:42.644Z,16.63
2018-12-26T09:49:13.566Z,16.40
2018-12-26T09:51:44.553Z,14.07
2018-12-26T09:54:15.418Z,18.40
2018-12-26T09:56:46.104Z,19.00
2018-12-26T09:59:16.968Z,22.33
2018-12-26T10:01:47.695Z,16.13
2018-12-26T10:04:21.628Z,21.10
2018-12-26T10:06:52.375Z,18.80
2018-12-26T10:09:23.218Z,18.70
2018-12-26T10:11:54.047Z,21.77
2018-12-26T10:14:25.778Z,17.57
2018-12-26T10:16:56.707Z,22.60
2018-12-26T10:19:28.534Z,20.67
2018-12-26T10:21:59.687Z,21.03
2018-12-26T10:24:33.731Z,23.37
2018-12-26T10:27:05.825Z,19.40
2018-12-26T10:29:36.886Z,26.53
2018-12-26T10:32:07.790Z,40.03
2018-12-26T10:34:38.544Z,42.53
2018-12-26T10:37:09.775Z,19.13
2018-12-26T10:39:42.007Z,18.83
2018-12-26T10:42:12.796Z,19.13
2018-12-26T10:44:43.389Z,21.63
2018-12-26T10:47:14.244Z,17.17
2018-12-26T10:49:45.080Z,19.50
2018-12-26T10:52:22.890Z,16.57
2018-12-26T10:54:53.635Z,18.87
2018-12-26T10:57:25.352Z,18.93
2018-12-26T10:59:57.701Z,20.83
2018-12-26T11:02:28.522Z,18.73
2018-12-26T11:04:59.244Z,19.23
2018-12-26T11:07:29.948Z,17.37
2018-12-26T11:10:00.645Z,18.73
2018-12-26T11:12:31.502Z,16.93
2018-12-26T11:15:02.234Z,17.67
2018-12-26T11:17:33.290Z,19.07
2018-12-26T11:20:05.973Z,16.70
2018-12-26T11:22:36.755Z,15.93
2018-12-26T11:25:08.936Z,16.77
2018-12-26T11:27:40.339Z,14.50
2018-12-26T11:30:12.163Z,14.73
2018-12-26T11:32:43.581Z,15.60
2018-12-26T11:35:17.430Z,14.23
2018-12-26T11:37:48.637Z,15.67
2018-12-26T11:40:19.379Z,14.57
2018-12-26T11:42:50.158Z,14.80
2018-12-26T11:45:21.611Z,13.30
2018-12-26T11:47:53.527Z,11.90
2018-12-26T11:50:25.418Z,14.70
2018-12-26T11:52:56.337Z,12.30
2018-12-26T11:55:27.477Z,12.53
2018-12-26T11:57:58.369Z,12.83
2018-12-26T12:00:29.117Z,13.20
2018-12-26T12:02:59.797Z,10.63
2018-12-26T12:05:31.434Z,11.40
2018-12-26T12:08:02.196Z,10.27
2018-12-26T12:10:33.423Z,13.03
2018-12-26T12:13:04.193Z,10.77
2018-12-26T12:15:34.861Z,9.77
2018-12-26T12:18:05.698Z,10.20
2018-12-26T12:20:36.355Z,8.97
2018-12-26T12:23:07.124Z,10.80
2018-12-26T12:25:37.836Z,10.20
2018-12-26T12:28:09.565Z,11.00
2018-12-26T12:30:41.988Z,8.53
2018-12-26T12:33:12.742Z,9.93
2018-12-26T12:35:43.453Z,8.73
2018-12-26T12:38:14.272Z,8.97
2018-12-26T12:40:44.939Z,8.70
2018-12-26T12:43:15.584Z,7.83
2018-12-26T12:45:46.293Z,6.77
2018-12-26T12:48:17.195Z,6.10
2018-12-26T12:50:48.072Z,6.83
2018-12-26T12:53:18.749Z,8.97
2018-12-26T12:55:49.737Z,6.40
2018-12-26T12:58:20.459Z,6.27
2018-12-26T13:00:51.276Z,6.67
2018-12-26T13:03:21.991Z,5.47
2018-12-26T13:05:52.737Z,8.63
2018-12-26T13:08:23.466Z,6.43
2018-12-26T13:10:54.309Z,5.30
2018-12-26T13:13:26.016Z,5.03
2018-12-26T13:16:01.099Z,5.83
2018-12-26T13:18:32.302Z,6.47
2018-12-26T13:21:03.095Z,5.80
2018-12-26T13:23:33.935Z,7.53
2018-12-26T13:26:04.640Z,6.17
2018-12-26T13:28:35.678Z,6.10
2018-12-26T13:31:06.996Z,7.23
2018-12-26T13:33:39.251Z,6.30
2018-12-26T13:36:11.001Z,6.00
2018-12-26T13:38:41.800Z,6.60
2018-12-26T13:41:12.792Z,5.70
2018-12-26T13:43:43.490Z,5.63
2018-12-26T13:46:15.328Z,5.67
2018-12-26T13:48:46.347Z,5.93
2018-12-26T13:51:19.030Z,5.73
2018-12-26T13:53:49.912Z,5.23
2018-12-26T13:56:20.703Z,10.17
2018-12-26T13:58:51.649Z,11.13
2018-12-26T14:01:23.026Z,18.30
2018-12-26T14:03:53.809Z,6.30
2018-12-26T14:06:24.467Z,6.00
2018-12-26T14:08:55.235Z,5.67
2018-12-26T14:11:27.641Z,6.83
2018-12-26T14:13:58.481Z,6.60
2018-12-26T14:16:29.112Z,5.93
2018-12-26T14:19:00.117Z,7.17
2018-12-26T14:21:31.415Z,6.73
2018-12-26T14:24:03.691Z,5.73
2018-12-26T14:26:36.391Z,6.00
2018-12-26T14:29:07.463Z,5.40
2018-12-26T14:31:38.124Z,5.77
2018-12-26T14:34:09.395Z,6.07
2018-12-26T14:36:40.831Z,6.60
2018-12-26T14:39:11.871Z,7.03
2018-12-26T14:41:42.575Z,5.97
2018-12-26T14:44:13.262Z,6.17
2018-12-26T14:46:44.583Z,7.47
2018-12-26T14:49:15.319Z,5.73
2018-12-26T14:51:46.606Z,6.50
2018-12-26T14:54:18.913Z,6.30
2018-12-26T14:56:49.819Z,6.53
2018-12-26T14:59:21.743Z,6.47
2018-12-26T15:01:54.325Z,7.53
2018-12-26T15:04:25.019Z,8.70
2018-12-26T15:06:55.712Z,7.37
2018-12-26T15:09:26.404Z,6.80
2018-12-26T15:11:57.111Z,6.60
2018-12-26T15:14:27.840Z,7.43
2018-12-26T15:16:59.093Z,8.63
2018-12-26T15:19:31.558Z,6.70
2018-12-26T15:22:02.593Z,6.60
2018-12-26T15:24:33.307Z,9.13
2018-12-26T15:27:04.073Z,7.87
2018-12-26T15:29:34.816Z,9.17
2018-12-26T15:32:05.575Z,11.83
2018-12-26T15:34:36.328Z,13.50
2018-12-26T15:37:07.341Z,11.20
2018-12-26T15:39:38.573Z,9.00
2018-12-26T15:42:09.491Z,9.87
2018-12-26T15:44:40.611Z,9.10
2018-12-26T15:47:12.398Z,10.13
2018-12-26T15:49:43.982Z,13.10
2018-12-26T15:52:14.969Z,31.47
2018-12-26T15:54:46.151Z,15.70
2018-12-26T15:57:16.968Z,10.37
2018-12-26T15:59:47.892Z,11.03
2018-12-26T16:02:18.776Z,20.48
2018-12-26T16:04:49.511Z,20.37
2018-12-26T16:07:20.418Z,22.47
2018-12-26T16:09:51.215Z,47.37
2018-12-26T16:12:21.948Z,38.70
2018-12-26T16:14:52.777Z,29.67
2018-12-26T16:17:23.462Z,12.77
2018-12-26T16:19:54.221Z,22.77
2018-12-26T16:22:25.441Z,25.67
2018-12-26T16:24:56.440Z,22.27
2018-12-26T16:27:27.263Z,16.57
2018-12-26T16:29:58.014Z,26.90
2018-12-26T16:32:29.325Z,23.63
2018-12-26T16:35:00.288Z,16.03
2018-12-26T16:37:33.877Z,21.17
2018-12-26T16:40:04.790Z,22.63
2018-12-26T16:42:35.663Z,29.47
2018-12-26T16:45:06.792Z,25.50
2018-12-26T16:47:37.512Z,15.97
2018-12-26T16:50:09.752Z,14.80
2018-12-26T16:52:40.676Z,17.67
2018-12-26T16:55:12.458Z,13.67
2018-12-26T16:57:43.934Z,14.70
2018-12-26T17:00:15.134Z,13.10
2018-12-26T17:02:46.337Z,11.27
2018-12-26T17:05:17.109Z,13.40
2018-12-26T17:07:48.380Z,14.17
2018-12-26T17:10:23.126Z,14.63
2018-12-26T17:12:53.992Z,15.70
2018-12-26T17:15:24.693Z,18.07
2018-12-26T17:17:55.518Z,15.77
2018-12-26T17:20:26.246Z,14.90
2018-12-26T17:22:57.018Z,14.47
2018-12-26T17:25:27.745Z,18.10
2018-12-26T17:27:58.420Z,17.00
2018-12-26T17:30:29.419Z,15.27
2018-12-26T17:33:01.051Z,14.60
2018-12-26T17:35:32.309Z,16.33
2018-12-26T17:38:03.188Z,15.27
2018-12-26T17:40:33.939Z,17.20
2018-12-26T17:43:04.800Z,14.00
2018-12-26T17:45:35.692Z,19.87
2018-12-26T17:48:06.538Z,14.47
2018-12-26T17:50:52.310Z,14.57
2018-12-26T17:54:09.625Z,16.97
2018-12-26T17:57:06.769Z,12.77
2018-12-26T18:00:42.067Z,12.63
2018-12-26T18:03:14.536Z,12.77
2018-12-26T18:05:46.563Z,15.20
2018-12-26T18:08:17.372Z,13.47
2018-12-26T18:10:48.909Z,11.80
2018-12-26T18:13:19.686Z,13.80
2018-12-26T18:15:50.894Z,12.63
2018-12-26T18:18:21.694Z,13.67
2018-12-26T18:20:52.653Z,16.00
2018-12-26T18:23:23.681Z,12.70
2018-12-26T18:25:54.520Z,15.80
2018-12-26T18:28:25.481Z,11.90
2018-12-26T18:30:56.321Z,13.97
2018-12-26T18:33:27.109Z,11.67
2018-12-26T18:35:57.877Z,13.10
2018-12-26T18:38:28.669Z,13.90
2018-12-26T18:40:59.526Z,11.63
2018-12-26T18:43:30.346Z,10.90
2018-12-26T18:46:01.180Z,14.07
2018-12-26T18:48:32.117Z,13.33
2018-12-26T18:51:03.201Z,13.97
2018-12-26T18:53:34.149Z,14.47
2018-12-26T18:56:04.915Z,13.23
2018-12-26T18:58:35.717Z,15.27
2018-12-26T19:01:16.284Z,13.33
2018-12-26T19:03:47.218Z,12.60
2018-12-26T19:06:17.971Z,11.77
2018-12-26T19:08:48.713Z,12.33
2018-12-26T19:11:19.776Z,12.60
2018-12-26T19:13:51.198Z,14.80
2018-12-26T19:16:21.933Z,14.60
2018-12-26T19:18:53.275Z,12.60
2018-12-26T19:21:24.100Z,13.80
2018-12-26T19:23:57.754Z,13.23
2018-12-26T19:26:28.620Z,12.33
2018-12-26T19:28:59.397Z,14.03
2018-12-26T19:31:39.250Z,30.20
2018-12-26T19:34:04.485Z,106.50
2018-12-26T19:36:37.462Z,54.13
2018-12-26T19:39:12.761Z,23.67
2018-12-26T19:41:44.003Z,25.77
2018-12-26T19:44:16.478Z,34.43
2018-12-26T19:46:47.667Z,21.87
2018-12-26T19:49:21.847Z,14.03
2018-12-26T19:51:53.029Z,16.83
2018-12-26T19:54:25.372Z,18.73
2018-12-26T19:56:56.996Z,12.33
2018-12-26T19:59:29.676Z,13.37
2018-12-26T20:02:00.541Z,13.30
2018-12-26T20:04:31.403Z,13.23
2018-12-26T20:07:03.488Z,13.70
2018-12-26T20:09:45.719Z,11.80
2018-12-26T20:12:32.500Z,16.67
2018-12-26T20:15:15.117Z,15.67
2018-12-26T20:17:49.887Z,16.50
2018-12-26T20:20:21.022Z,14.27
2018-12-26T20:22:51.873Z,28.37
2018-12-26T20:25:23.352Z,17.27
2018-12-26T20:27:55.298Z,17.23
2018-12-26T20:30:26.615Z,13.40
2018-12-26T20:33:01.385Z,14.73
2018-12-26T20:35:32.683Z,18.20
2018-12-26T20:38:03.627Z,16.77
2018-12-26T20:40:34.663Z,16.27
2018-12-26T20:43:05.814Z,21.50
2018-12-26T20:45:36.523Z,17.07
2018-12-26T20:48:07.217Z,17.13
2018-12-26T20:50:37.896Z,18.87
2018-12-26T20:53:08.715Z,16.50
2018-12-26T20:55:39.552Z,18.10
2018-12-26T20:58:10.915Z,17.13
2018-12-26T21:00:43.323Z,17.90
2018-12-26T21:03:14.038Z,17.13
2018-12-26T21:05:45.141Z,17.97
2018-12-26T21:08:16.013Z,23.53
2018-12-26T21:10:47.052Z,20.70
2018-12-26T21:13:18.258Z,19.80
2018-12-26T21:15:48.460Z,18.33
2018-12-26T21:18:18.564Z,21.20
2018-12-26T21:20:49.636Z,20.40
2018-12-26T21:23:19.993Z,25.30
2018-12-26T21:25:50.261Z,22.47
2018-12-26T21:28:20.458Z,22.30
2018-12-26T21:30:50.717Z,26.80
2018-12-26T21:33:21.086Z,27.07
2018-12-26T21:35:51.454Z,29.20
2018-12-26T21:38:21.630Z,27.93
2018-12-26T21:40:51.842Z,30.93
2018-12-26T21:43:21.991Z,33.43
2018-12-26T21:45:52.070Z,31.17
2018-12-26T21:48:22.307Z,30.33
2018-12-26T21:50:52.433Z,35.33
2018-12-26T21:53:22.569Z,33.30
2018-12-26T21:55:53.744Z,35.67
2018-12-26T21:58:24.000Z,42.20
2018-12-26T22:00:54.184Z,40.20
2018-12-26T22:03:24.511Z,35.10
2018-12-26T22:05:54.679Z,38.60
2018-12-26T22:08:24.878Z,40.00
2018-12-26T22:10:54.918Z,38.00
2018-12-26T22:13:25.053Z,39.10
2018-12-26T22:15:55.330Z,41.97
2018-12-26T22:18:25.396Z,36.00
2018-12-26T22:20:55.516Z,40.60
2018-12-26T22:23:25.708Z,39.43
2018-12-26T22:25:55.716Z,49.57
2018-12-26T22:28:25.797Z,57.13
2018-12-26T22:30:55.972Z,66.13
2018-12-26T22:33:26.117Z,55.70
2018-12-26T22:35:56.249Z,58.73
2018-12-26T22:38:26.324Z,55.60
2018-12-26T22:40:56.430Z,88.67
2018-12-26T22:43:26.490Z,71.97
2018-12-26T22:45:57.206Z,75.33
2018-12-26T22:48:28.324Z,76.03
2018-12-26T22:50:59.214Z,80.03
2018-12-26T22:53:30.272Z,81.87
2018-12-26T22:56:01.287Z,81.40
2018-12-26T22:58:32.077Z,61.97
2018-12-26T23:01:03.382Z,74.20
2018-12-26T23:03:38.915Z,71.20
2018-12-26T23:06:13.808Z,79.83
2018-12-26T23:08:50.181Z,77.67
2018-12-26T23:11:27.667Z,80.73
2018-12-26T23:14:04.264Z,75.33
2018-12-26T23:16:45.392Z,80.00
2018-12-26T23:19:17.980Z,81.67
2018-12-26T23:21:48.419Z,74.27
2018-12-26T23:24:18.631Z,76.50
2018-12-26T23:26:48.866Z,75.10
2018-12-26T23:29:20.196Z,96.80
2018-12-26T23:31:50.665Z,87.67
2018-12-26T23:34:21.053Z,88.87
2018-12-26T23:36:51.305Z,87.53
2018-12-26T23:39:21.422Z,75.60
2018-12-26T23:41:51.596Z,90.03
2018-12-26T23:44:21.693Z,82.03
2018-12-26T23:46:51.756Z,93.83
2018-12-26T23:49:22.273Z,116.37
2018-12-26T23:51:52.520Z,100.93
2018-12-26T23:54:22.624Z,88.83
2018-12-26T23:56:52.747Z,83.30
2018-12-26T23:59:22.800Z,93.63
